createdAt,value
2022-10-17T00:03:51.796Z,0
2022-10-17T00:05:53.054Z,0
2022-10-17T00:07:54.144Z,0
2022-10-17T00:09:55.494Z,0
2022-10-17T00:11:56.920Z,0
2022-10-17T00:13:57.901Z,0
2022-10-17T00:15:58.953Z,0
2022-10-17T00:18:00.042Z,0
2022-10-17T00:20:01.671Z,0
2022-10-17T00:22:03.284Z,0
2022-10-17T00:24:04.546Z,0
2022-10-17T00:26:05.570Z,0
2022-10-17T00:28:06.580Z,0
2022-10-17T00:30:07.979Z,0
2022-10-17T00:32:09.646Z,0
2022-10-17T00:34:11.371Z,0
2022-10-17T00:36:12.898Z,0
2022-10-17T00:38:14.174Z,0
2022-10-17T00:40:15.193Z,0
2022-10-17T00:44:18.471Z,0
2022-10-17T00:46:19.412Z,0
2022-10-17T00:48:22.456Z,0
2022-10-17T00:50:21.887Z,0
2022-10-17T00:52:23.188Z,0
2022-10-17T00:54:24.419Z,0
2022-10-17T00:56:26.146Z,0
2022-10-17T00:58:27.808Z,0
2022-10-17T01:00:28.869Z,0
2022-10-17T01:02:30.374Z,0
2022-10-17T01:04:31.937Z,0
2022-10-17T01:06:33.088Z,0
2022-10-17T01:08:34.138Z,0
2022-10-17T01:10:35.630Z,0
2022-10-17T01:12:36.679Z,0
2022-10-17T01:14:37.964Z,0
2022-10-17T01:16:39.441Z,0
2022-10-17T01:18:40.994Z,0
2022-10-17T01:20:41.939Z,0
2022-10-17T01:22:43.430Z,0
2022-10-17T01:24:44.424Z,0
2022-10-17T01:26:45.971Z,0
2022-10-17T01:28:47.196Z,0
2022-10-17T01:30:48.480Z,0
2022-10-17T01:34:51.540Z,0
2022-10-17T01:36:52.476Z,0
2022-10-17T01:38:54.228Z,0
2022-10-17T01:40:55.291Z,0
2022-10-17T01:44:57.544Z,0
2022-10-17T01:46:59.153Z,0
2022-10-17T01:49:00.929Z,0
2022-10-17T01:51:02.352Z,0
2022-10-17T01:53:03.316Z,0
2022-10-17T01:55:04.812Z,0
2022-10-17T01:57:06.196Z,0
2022-10-17T01:59:07.382Z,0
2022-10-17T02:01:09.222Z,0
2022-10-17T02:03:10.135Z,0
2022-10-17T02:05:11.147Z,0
2022-10-17T02:07:12.962Z,0
2022-10-17T02:09:14.587Z,0
2022-10-17T02:11:15.891Z,0
2022-10-17T02:13:17.020Z,0
2022-10-17T02:17:20.202Z,0
2022-10-17T02:19:21.795Z,0
2022-10-17T02:21:23.074Z,0
2022-10-17T02:23:24.740Z,0
2022-10-17T02:27:27.564Z,0
2022-10-17T02:29:29.253Z,0
2022-10-17T02:31:31.048Z,0
2022-10-17T02:33:32.899Z,0
2022-10-17T02:35:34.314Z,0
2022-10-17T02:37:35.780Z,0
2022-10-17T02:39:37.126Z,0
2022-10-17T02:41:38.412Z,0
2022-10-17T02:43:39.604Z,0
2022-10-17T02:45:41.122Z,0
2022-10-17T02:47:42.736Z,0
2022-10-17T02:49:44.323Z,0
2022-10-17T02:51:45.374Z,0
2022-10-17T02:53:46.909Z,0
2022-10-17T02:55:48.459Z,0
2022-10-17T02:57:49.612Z,0
2022-10-17T02:59:51.166Z,0
2022-10-17T03:01:52.465Z,0
2022-10-17T03:03:53.713Z,0
2022-10-17T03:05:55.511Z,0
2022-10-17T03:07:56.806Z,0
2022-10-17T03:09:58.449Z,0
2022-10-17T03:11:59.729Z,0
2022-10-17T03:14:01.346Z,0
2022-10-17T03:16:02.558Z,0
2022-10-17T03:18:04.289Z,0
2022-10-17T03:20:05.978Z,0
2022-10-17T03:22:06.984Z,0
2022-10-17T03:24:08.273Z,0
2022-10-17T03:26:09.343Z,0
2022-10-17T03:28:11.041Z,0
2022-10-17T03:30:12.310Z,0
2022-10-17T03:32:13.831Z,0
2022-10-17T03:34:14.897Z,0
2022-10-17T03:36:15.986Z,0
2022-10-17T03:38:17.393Z,0
2022-10-17T03:40:19.027Z,0
2022-10-17T03:42:20.720Z,0
2022-10-17T03:44:22.650Z,0
2022-10-17T03:46:23.943Z,0
2022-10-17T03:48:24.946Z,0
2022-10-17T03:50:26.057Z,0
2022-10-17T03:52:27.447Z,0
2022-10-17T03:54:28.625Z,0
2022-10-17T03:58:31.246Z,0
2022-10-17T04:00:32.474Z,0
2022-10-17T04:02:33.726Z,0
2022-10-17T04:04:35.048Z,0
2022-10-17T04:08:38.282Z,0
2022-10-17T04:10:39.188Z,0
2022-10-17T04:12:40.628Z,0
2022-10-17T04:14:41.696Z,0
2022-10-17T04:16:42.620Z,0
2022-10-17T04:18:44.407Z,0
2022-10-17T04:20:45.884Z,0
2022-10-17T04:22:47.364Z,0
2022-10-17T04:24:48.519Z,0
2022-10-17T04:26:49.839Z,0
2022-10-17T04:28:51.479Z,0
2022-10-17T04:30:54.106Z,0
2022-10-17T04:32:54.681Z,0
2022-10-17T04:34:56.568Z,0
2022-10-17T04:36:58.452Z,0
2022-10-17T04:38:59.745Z,0
2022-10-17T04:41:01.319Z,0
2022-10-17T04:43:02.393Z,0
2022-10-17T04:45:04.086Z,0
2022-10-17T04:47:05.476Z,0
2022-10-17T04:49:06.707Z,0
2022-10-17T04:51:07.909Z,0
2022-10-17T04:53:09.292Z,0
2022-10-17T04:55:11.523Z,0
2022-10-17T04:57:11.542Z,0
2022-10-17T04:59:12.921Z,0
2022-10-17T05:01:14.468Z,0
2022-10-17T05:02:06.317Z,0
2022-10-17T05:04:07.783Z,0
2022-10-17T05:06:09.392Z,0
2022-10-17T05:08:10.903Z,0
2022-10-17T05:10:11.995Z,0
2022-10-17T05:12:13.422Z,0
2022-10-17T05:14:15.362Z,0
2022-10-17T05:18:18.627Z,0
2022-10-17T05:20:20.196Z,0
2022-10-17T05:22:21.300Z,0
2022-10-17T05:24:22.326Z,0
2022-10-17T05:28:24.996Z,0
2022-10-17T05:30:26.174Z,0
2022-10-17T05:32:27.363Z,0
2022-10-17T05:34:28.835Z,0
2022-10-17T05:36:30.559Z,0
2022-10-17T05:38:32.446Z,0
2022-10-17T05:40:34.252Z,0
2022-10-17T05:42:36.176Z,0
2022-10-17T05:44:37.073Z,0
2022-10-17T05:46:38.221Z,0
2022-10-17T05:48:40.129Z,0
2022-10-17T05:50:41.042Z,0
2022-10-17T05:52:43.892Z,0
2022-10-17T05:54:43.913Z,0
2022-10-17T05:56:44.871Z,0
2022-10-17T06:00:47.674Z,0
2022-10-17T06:02:49.104Z,0
2022-10-17T06:04:51.115Z,0
2022-10-17T06:06:52.113Z,0
2022-10-17T06:10:54.315Z,0
2022-10-17T06:12:55.792Z,0
2022-10-17T06:14:56.782Z,0
2022-10-17T06:16:57.866Z,0
2022-10-17T06:18:59.597Z,0
2022-10-17T06:21:00.663Z,0
2022-10-17T06:23:01.855Z,0
2022-10-17T06:25:02.821Z,0
2022-10-17T06:27:07.889Z,0
2022-10-17T06:29:06.369Z,0
2022-10-17T06:31:07.948Z,0
2022-10-17T06:33:09.062Z,0
2022-10-17T06:35:10.925Z,0
2022-10-17T06:37:12.280Z,0
2022-10-17T06:39:14.166Z,0
2022-10-17T06:41:15.681Z,0
2022-10-17T06:43:17.471Z,0
2022-10-17T06:45:19.214Z,0
2022-10-17T06:47:20.605Z,0
2022-10-17T06:49:21.976Z,0
2022-10-17T06:51:23.721Z,0
2022-10-17T06:53:24.755Z,0
2022-10-17T06:55:26.273Z,0
2022-10-17T06:57:28.350Z,0
2022-10-17T06:59:29.029Z,0
2022-10-17T07:01:30.102Z,0
2022-10-17T07:03:31.293Z,0
2022-10-17T07:05:32.575Z,0
2022-10-17T07:09:35.415Z,0
2022-10-17T07:11:36.720Z,0
2022-10-17T07:13:39.231Z,0
2022-10-17T07:15:39.195Z,0
2022-10-17T07:17:40.799Z,0
2022-10-17T07:19:41.662Z,0
2022-10-17T07:21:43.064Z,0
2022-10-17T07:23:44.078Z,0
2022-10-17T07:25:45.285Z,0
2022-10-17T07:27:46.911Z,0
2022-10-17T07:29:47.787Z,0
2022-10-17T07:31:48.656Z,0
2022-10-17T07:33:49.585Z,0
2022-10-17T07:35:50.836Z,0
2022-10-17T07:37:51.842Z,0
2022-10-17T07:39:53.184Z,0
2022-10-17T07:41:54.379Z,0
2022-10-17T07:43:55.882Z,0
2022-10-17T07:45:57.174Z,0
2022-10-17T07:47:58.456Z,0
2022-10-17T07:52:01.146Z,0
2022-10-17T07:54:02.636Z,0
2022-10-17T07:56:03.995Z,0
2022-10-17T07:58:05.738Z,0.14
2022-10-17T08:00:06.696Z,0
2022-10-17T08:02:07.547Z,0
2022-10-17T08:04:09.062Z,0
2022-10-17T08:06:10.137Z,0
2022-10-17T08:08:11.447Z,0
2022-10-17T08:10:12.650Z,0.14
2022-10-17T08:12:14.350Z,0.421
2022-10-17T08:14:15.601Z,0
2022-10-17T08:16:17.086Z,0
2022-10-17T08:18:18.378Z,0
2022-10-17T08:20:19.815Z,0
2022-10-17T08:22:20.705Z,0
2022-10-17T08:24:21.795Z,0.421
2022-10-17T08:26:22.904Z,0.28
2022-10-17T08:28:25.067Z,0
2022-10-17T08:30:27.298Z,0.982
2022-10-17T08:32:29.184Z,0
2022-10-17T08:34:29.972Z,0.561
2022-10-17T08:36:31.012Z,0.561
2022-10-17T08:38:35.271Z,0
2022-10-17T08:40:33.902Z,0
2022-10-17T08:42:35.330Z,0.28
2022-10-17T08:44:36.892Z,0
2022-10-17T08:46:39.581Z,0.982
2022-10-17T08:48:42.667Z,0.28
2022-10-17T08:50:42.331Z,0.28
2022-10-17T08:52:43.892Z,0.14
2022-10-17T08:54:45.349Z,0
2022-10-17T08:56:49.121Z,0
2022-10-17T08:58:48.306Z,0.14
2022-10-17T09:00:49.145Z,0.982
2022-10-17T09:02:50.682Z,0
2022-10-17T09:04:51.467Z,0
2022-10-17T09:06:52.715Z,0
2022-10-17T09:08:53.609Z,0
2022-10-17T09:10:54.845Z,0
2022-10-17T09:12:56.266Z,0.28
2022-10-17T09:14:57.651Z,0.14
2022-10-17T09:16:59.090Z,0.28
2022-10-17T09:19:00.715Z,0
2022-10-17T09:23:03.918Z,0
2022-10-17T09:25:05.351Z,0.561
2022-10-17T09:27:06.214Z,0
2022-10-17T09:29:07.821Z,0
2022-10-17T09:33:15.240Z,1.404
2022-10-17T09:35:10.661Z,0
2022-10-17T09:37:11.884Z,0
2022-10-17T09:39:13.281Z,0
2022-10-17T09:41:32.366Z,0.14
2022-10-17T09:43:15.679Z,0.14
2022-10-17T09:45:16.486Z,0
2022-10-17T09:47:17.860Z,0.842
2022-10-17T09:49:18.853Z,0.561
2022-10-17T09:51:25.548Z,0.982
2022-10-17T09:53:20.704Z,0.28
2022-10-17T09:55:22.344Z,1.263
2022-10-17T09:57:23.930Z,0
2022-10-17T09:59:25.015Z,1.544
2022-10-17T10:03:27.404Z,1.965
2022-10-17T10:05:28.405Z,2.386
2022-10-17T10:07:29.552Z,0.28
2022-10-17T10:09:30.363Z,0
2022-10-17T10:11:32.656Z,0.14
2022-10-17T10:13:34.155Z,0.421
2022-10-17T10:15:35.779Z,0.421
2022-10-17T10:17:38.052Z,0.421
2022-10-17T10:19:39.607Z,0.421
2022-10-17T10:21:42.159Z,0
2022-10-17T10:23:42.912Z,1.263
2022-10-17T10:25:44.579Z,2.106
2022-10-17T10:27:46.170Z,0.14
2022-10-17T10:29:47.678Z,0.702
2022-10-17T10:31:48.822Z,0.421
2022-10-17T10:33:51.498Z,0
2022-10-17T10:35:51.230Z,0
2022-10-17T10:37:52.059Z,1.544
2022-10-17T10:39:52.865Z,3.369
2022-10-17T10:41:54.601Z,5.054
2022-10-17T10:43:55.444Z,1.544
2022-10-17T10:45:57.168Z,1.965
2022-10-17T10:47:58.754Z,0.702
2022-10-17T10:50:00.344Z,0.842
2022-10-17T10:52:01.285Z,0.421
2022-10-17T10:54:02.111Z,0
2022-10-17T10:56:03.836Z,1.965
2022-10-17T10:58:05.514Z,0
2022-10-17T11:00:07.056Z,0.982
2022-10-17T11:04:09.322Z,0.28
2022-10-17T11:06:10.818Z,1.684
2022-10-17T11:08:12.382Z,0.28
2022-10-17T11:10:13.733Z,3.088
2022-10-17T11:14:16.013Z,1.404
2022-10-17T11:16:17.248Z,0
2022-10-17T11:18:18.603Z,0.842
2022-10-17T11:20:19.419Z,2.808
2022-10-17T11:22:22.010Z,0.28
2022-10-17T11:24:22.084Z,2.106
2022-10-17T11:26:23.270Z,0
2022-10-17T11:28:24.241Z,1.123
2022-10-17T11:32:27.293Z,2.106
2022-10-17T11:34:28.240Z,4.071
2022-10-17T11:36:29.266Z,1.965
2022-10-17T11:38:30.759Z,1.123
2022-10-17T11:42:33.387Z,0.842
2022-10-17T11:46:35.264Z,0.561
2022-10-17T11:47:18.993Z,1.965
2022-10-17T11:49:20.814Z,0
2022-10-17T11:53:23.281Z,0.28
2022-10-17T11:55:24.499Z,0.982
2022-10-17T11:57:26.283Z,1.965
2022-10-17T11:59:27.844Z,1.825
2022-10-17T12:01:28.707Z,2.246
2022-10-17T12:03:30.150Z,0.561
2022-10-17T12:05:31.529Z,0.561
2022-10-17T12:07:32.807Z,1.825
2022-10-17T12:09:33.249Z,6.037
2022-10-17T12:11:34.455Z,0.982
2022-10-17T12:13:35.158Z,3.229
2022-10-17T12:15:36.354Z,1.684
2022-10-17T12:17:37.663Z,1.684
2022-10-17T12:19:38.664Z,4.914
2022-10-17T12:21:42.765Z,4.492
2022-10-17T12:23:41.069Z,3.229
2022-10-17T12:25:42.792Z,2.667
2022-10-17T12:27:44.017Z,1.123
2022-10-17T12:29:44.838Z,4.071
2022-10-17T12:31:45.761Z,3.229
2022-10-17T12:33:47.038Z,2.667
2022-10-17T12:35:47.841Z,6.177
2022-10-17T12:39:50.597Z,0.561
2022-10-17T12:41:51.741Z,2.386
2022-10-17T12:45:54.685Z,2.386
2022-10-17T12:51:58.643Z,4.773
2022-10-17T12:53:59.809Z,6.739
2022-10-17T12:56:00.893Z,6.739
2022-10-17T12:58:02.363Z,6.879
2022-10-17T13:00:03.585Z,1.825
2022-10-17T13:02:05.243Z,2.527
2022-10-17T13:04:06.373Z,5.054
2022-10-17T13:06:07.434Z,6.177
2022-10-17T13:08:08.838Z,3.65
2022-10-17T13:12:10.826Z,4.352
2022-10-17T13:14:11.946Z,7.581
2022-10-17T13:16:13.604Z,2.808
2022-10-17T13:18:14.622Z,1.404
2022-10-17T13:22:17.690Z,2.106
2022-10-17T13:24:18.753Z,6.318
2022-10-17T13:26:20.105Z,1.544
2022-10-17T13:28:21.751Z,4.773
2022-10-17T13:30:23.386Z,7.862
2022-10-17T13:32:24.494Z,2.527
2022-10-17T13:34:26.055Z,5.896
2022-10-17T13:36:27.151Z,2.808
2022-10-17T13:38:28.331Z,2.667
2022-10-17T13:40:48.336Z,1.684
2022-10-17T13:42:31.687Z,4.212
2022-10-17T13:44:32.833Z,2.667
2022-10-17T13:46:38.218Z,7.16
2022-10-17T13:48:35.181Z,4.633
2022-10-17T13:50:43.955Z,3.51
2022-10-17T13:52:37.774Z,5.054
2022-10-17T13:54:39.321Z,3.79
2022-10-17T13:56:40.214Z,3.088
2022-10-17T13:58:41.164Z,3.51
2022-10-17T14:00:42.669Z,3.79
2022-10-17T14:02:43.824Z,3.931
2022-10-17T14:05:12.031Z,2.246
2022-10-17T14:06:47.584Z,6.598
2022-10-17T14:10:48.799Z,1.684
2022-10-17T14:12:51.094Z,6.598
2022-10-17T14:15:09.593Z,3.931
2022-10-17T14:16:53.032Z,4.914
2022-10-17T14:21:32.002Z,2.808
2022-10-17T14:23:21.266Z,3.088
2022-10-17T14:25:02.268Z,5.756
2022-10-17T14:26:59.192Z,4.633
2022-10-17T14:29:00.713Z,5.335
2022-10-17T14:31:01.802Z,3.369
2022-10-17T14:33:03.376Z,5.616
2022-10-17T14:35:19.098Z,5.194
2022-10-17T14:37:06.696Z,3.65
2022-10-17T14:39:11.999Z,5.896
2022-10-17T14:41:37.676Z,2.106
2022-10-17T14:43:10.976Z,5.756
2022-10-17T14:45:11.902Z,3.51
2022-10-17T14:47:38.423Z,1.684
2022-10-17T14:49:14.417Z,1.684
2022-10-17T14:53:17.082Z,3.088
2022-10-17T14:55:18.517Z,2.667
2022-10-17T14:57:19.836Z,1.544
2022-10-17T14:59:30.220Z,1.263
2022-10-17T15:03:23.758Z,2.948
2022-10-17T15:05:25.104Z,3.088
2022-10-17T15:07:26.849Z,3.51
2022-10-17T15:09:27.965Z,1.965
2022-10-17T15:11:28.903Z,1.404
2022-10-17T15:13:32.339Z,0.28
2022-10-17T15:15:31.558Z,2.246
2022-10-17T15:17:32.871Z,4.212
2022-10-17T15:19:34.375Z,3.088
2022-10-17T15:21:40.710Z,1.684
2022-10-17T15:23:37.374Z,2.246
2022-10-17T15:25:38.804Z,0.14
2022-10-17T15:27:39.935Z,1.825
2022-10-17T15:29:41.123Z,0.421
2022-10-17T15:31:42.504Z,0.982
2022-10-17T15:33:43.911Z,0.28
2022-10-17T15:35:45.359Z,0.14
2022-10-17T15:37:47.068Z,0.842
2022-10-17T15:39:48.467Z,0.842
2022-10-17T15:41:49.472Z,2.386
2022-10-17T15:43:50.966Z,0.842
2022-10-17T15:45:52.502Z,0
2022-10-17T15:47:53.735Z,0
2022-10-17T15:49:55.063Z,0
2022-10-17T15:51:56.189Z,0
2022-10-17T15:53:57.003Z,0
2022-10-17T15:55:58.029Z,0
2022-10-17T15:57:59.415Z,0
2022-10-17T16:00:00.448Z,0
2022-10-17T16:02:01.590Z,0
2022-10-17T16:04:02.819Z,0
2022-10-17T16:06:04.336Z,0
2022-10-17T16:08:05.239Z,0
2022-10-17T16:10:06.700Z,0
2022-10-17T16:12:07.827Z,0
2022-10-17T16:14:08.808Z,0.702
2022-10-17T16:16:10.502Z,0
2022-10-17T16:18:12.067Z,0.14
2022-10-17T16:20:13.399Z,0
2022-10-17T16:22:14.852Z,0
2022-10-17T16:24:16.257Z,0
2022-10-17T16:26:17.237Z,0
2022-10-17T16:28:18.520Z,0
2022-10-17T16:30:19.745Z,0
2022-10-17T16:34:22.837Z,0
2022-10-17T16:36:24.546Z,0
2022-10-17T16:38:26.228Z,0
2022-10-17T16:40:27.169Z,0
2022-10-17T16:44:29.895Z,0
2022-10-17T16:46:30.991Z,0
2022-10-17T16:48:32.803Z,1.263
2022-10-17T16:50:34.272Z,0.561
2022-10-17T16:52:35.782Z,1.404
2022-10-17T16:54:36.690Z,0.421
2022-10-17T16:56:37.561Z,0
2022-10-17T16:58:39.183Z,0
2022-10-17T17:00:40.480Z,0
2022-10-17T17:02:42.313Z,0
2022-10-17T17:04:43.201Z,2.246
2022-10-17T17:08:45.978Z,2.667
2022-10-17T17:10:47.681Z,0.982
2022-10-17T17:12:49.198Z,1.684
2022-10-17T17:16:51.778Z,0
2022-10-17T17:18:52.856Z,0
2022-10-17T17:20:54.512Z,0
2022-10-17T17:22:55.695Z,0
2022-10-17T17:24:57.040Z,0
2022-10-17T17:26:58.418Z,0
2022-10-17T17:28:59.768Z,0
2022-10-17T17:31:01.103Z,0
2022-10-17T17:33:02.963Z,0
2022-10-17T17:35:04.769Z,0
2022-10-17T17:37:05.880Z,0
2022-10-17T17:39:07.157Z,0
2022-10-17T17:41:08.438Z,0
2022-10-17T17:43:09.549Z,0
2022-10-17T17:45:10.586Z,0
2022-10-17T17:47:11.562Z,0
2022-10-17T17:49:13.040Z,0
2022-10-17T17:51:14.391Z,0
2022-10-17T17:53:15.723Z,0
2022-10-17T17:55:16.861Z,0
2022-10-17T17:57:17.894Z,0
2022-10-17T17:59:18.944Z,0
2022-10-17T18:01:20.331Z,0
2022-10-17T18:03:21.871Z,0
2022-10-17T18:05:22.927Z,0
2022-10-17T18:07:24.146Z,0
2022-10-17T18:09:25.854Z,0
2022-10-17T18:11:27.155Z,0
2022-10-17T18:15:30.036Z,0
2022-10-17T18:17:31.626Z,0
2022-10-17T18:19:33.071Z,0
2022-10-17T18:21:34.296Z,0
2022-10-17T18:25:37.168Z,0
2022-10-17T18:27:38.727Z,0
2022-10-17T18:29:39.648Z,0
2022-10-17T18:31:40.849Z,0
2022-10-17T18:32:24.601Z,0
2022-10-17T18:34:26.249Z,0
2022-10-17T18:36:27.568Z,0
2022-10-17T18:38:29.215Z,0
2022-10-17T18:40:30.922Z,0
2022-10-17T18:42:32.540Z,0
2022-10-17T18:44:34.122Z,0
2022-10-17T18:46:35.065Z,0
2022-10-17T18:48:36.374Z,0
2022-10-17T18:52:39.718Z,0
2022-10-17T18:54:41.090Z,0
2022-10-17T18:56:42.777Z,0
2022-10-17T18:58:43.712Z,0
2022-10-17T19:00:45.068Z,0
2022-10-17T19:02:46.110Z,0
2022-10-17T19:06:49.256Z,0
2022-10-17T19:08:50.897Z,0
2022-10-17T19:10:52.385Z,0
2022-10-17T19:12:53.713Z,0
2022-10-17T19:14:55.589Z,0
2022-10-17T19:16:56.768Z,0
2022-10-17T19:18:58.423Z,0
2022-10-17T19:20:59.699Z,0
2022-10-17T19:23:01.015Z,0
2022-10-17T19:25:01.988Z,0
2022-10-17T19:27:03.095Z,0
2022-10-17T19:29:04.689Z,0
2022-10-17T19:31:06.459Z,0
2022-10-17T19:33:08.251Z,0
2022-10-17T19:35:09.831Z,0
2022-10-17T19:37:11.526Z,0
2022-10-17T19:39:12.955Z,0
2022-10-17T19:41:14.788Z,0
2022-10-17T19:43:16.425Z,0
2022-10-17T19:45:18.114Z,0
2022-10-17T19:47:19.693Z,0
2022-10-17T19:49:21.073Z,0
2022-10-17T19:51:22.016Z,0
2022-10-17T19:53:23.374Z,0
2022-10-17T19:55:24.488Z,0
2022-10-17T19:57:25.453Z,0
2022-10-17T19:59:26.389Z,0
2022-10-17T20:01:28.264Z,0
2022-10-17T20:03:29.164Z,0
2022-10-17T20:05:31.066Z,0
2022-10-17T20:07:32.037Z,0
2022-10-17T20:09:33.229Z,0
2022-10-17T20:11:34.205Z,0
2022-10-17T20:13:35.894Z,0
2022-10-17T20:15:37.577Z,0
2022-10-17T20:17:39.358Z,0
2022-10-17T20:19:40.737Z,0
2022-10-17T20:21:42.024Z,0
2022-10-17T20:23:43.572Z,0
2022-10-17T20:25:45.129Z,0
2022-10-17T20:27:46.422Z,0
2022-10-17T20:29:47.866Z,0
2022-10-17T20:33:49.849Z,0
2022-10-17T20:35:51.686Z,0
2022-10-17T20:37:53.180Z,0
2022-10-17T20:40:10.845Z,0
2022-10-17T20:43:56.991Z,0
2022-10-17T20:46:03.671Z,0
2022-10-17T20:47:59.266Z,0
2022-10-17T20:50:01.012Z,0
2022-10-17T20:52:02.105Z,0
2022-10-17T20:56:05.237Z,0
2022-10-17T20:58:06.739Z,0
2022-10-17T21:00:08.594Z,0
2022-10-17T21:02:10.196Z,0
2022-10-17T21:04:33.727Z,0
2022-10-17T21:06:13.402Z,0
2022-10-17T21:08:14.297Z,0
2022-10-17T21:10:34.209Z,0
2022-10-17T21:12:21.516Z,0
2022-10-17T21:16:18.673Z,0
2022-10-17T21:18:20.079Z,0
2022-10-17T21:20:21.277Z,0
2022-10-17T21:22:23.076Z,0
2022-10-17T21:26:25.504Z,0
2022-10-17T21:28:27.061Z,0
2022-10-17T21:30:28.316Z,0
2022-10-17T21:32:40.193Z,0
2022-10-17T21:34:31.041Z,0
2022-10-17T21:36:32.232Z,0
2022-10-17T21:38:33.752Z,0
2022-10-17T21:40:34.666Z,0
2022-10-17T21:42:36.134Z,0
2022-10-17T21:44:37.419Z,0
2022-10-17T21:46:38.725Z,0
2022-10-17T21:48:40.100Z,0
2022-10-17T21:50:41.601Z,0
2022-10-17T21:52:42.801Z,0
2022-10-17T21:54:44.177Z,0
2022-10-17T21:56:45.979Z,0
2022-10-17T21:58:47.044Z,0.14
2022-10-17T22:00:48.884Z,0
2022-10-17T22:02:50.106Z,0
2022-10-17T22:04:51.151Z,0
2022-10-17T22:06:52.795Z,0
2022-10-17T22:08:53.763Z,0
2022-10-17T22:10:54.703Z,0
2022-10-17T22:12:56.301Z,0
2022-10-17T22:14:57.608Z,0
2022-10-17T22:16:59.273Z,0
2022-10-17T22:19:03.034Z,0
2022-10-17T22:21:02.481Z,0
2022-10-17T22:23:03.969Z,0
2022-10-17T22:25:05.774Z,0
2022-10-17T22:27:07.365Z,0
2022-10-17T22:29:08.885Z,0
2022-10-17T22:31:10.723Z,0
2022-10-17T22:33:12.698Z,0
2022-10-17T22:35:13.823Z,0
2022-10-17T22:37:14.855Z,0
2022-10-17T22:39:16.286Z,0
2022-10-17T22:41:17.300Z,0
2022-10-17T22:43:18.289Z,0
2022-10-17T22:45:19.335Z,0
2022-10-17T22:47:20.785Z,0
2022-10-17T22:49:21.896Z,0
2022-10-17T22:53:23.815Z,0
2022-10-17T22:57:26.872Z,0
2022-10-17T22:59:27.793Z,0
2022-10-17T23:01:29.495Z,0
2022-10-17T23:03:30.767Z,0
2022-10-17T23:07:32.691Z,0
2022-10-17T23:09:34.332Z,0
2022-10-17T23:11:35.899Z,0
2022-10-17T23:13:37.801Z,0
2022-10-17T23:15:39.334Z,0
2022-10-17T23:17:41.053Z,0
2022-10-17T23:19:42.275Z,0
2022-10-17T23:21:43.239Z,0
2022-10-17T23:23:44.992Z,0
2022-10-17T23:25:46.486Z,0
2022-10-17T23:29:49.939Z,0
2022-10-17T23:31:51.298Z,0
2022-10-17T23:33:52.785Z,0
2022-10-17T23:35:54.296Z,0
2022-10-17T23:39:57.487Z,0
2022-10-17T23:41:58.581Z,0
2022-10-17T23:44:00.410Z,0
2022-10-17T23:46:01.717Z,0
2022-10-17T23:50:04.493Z,0
2022-10-17T23:52:06.253Z,0
2022-10-17T23:54:07.769Z,0
2022-10-17T23:56:09.505Z,0
2022-10-17T23:58:11.049Z,0
